Time;durP1;ratioP1;P1;durP2;ratioP2;P2;SDS_P1;SDS_P2;PMS_P1;PMS_P2;Temp;Humidity;BMP_temperature;BMP_pressure;BME280_temperature;BME280_humidity;BME280_pressure;Samples;Min_cycle;Max_cycle;Signal;HPM_P1;HPM_P2
2022/08/01 00:00:02;;;;;;;4.06;1.26;;;;;;;23.42;40.07;100442.51;460711;115;922583;-80
2022/08/01 00:01:07;;;;;;;2.56;1.71;;;;;;;23.41;40.11;100438.07;461057;115;923051;-80
2022/08/01 00:02:12;;;;;;;3.04;1.63;;;;;;;23.41;40.17;100440.85;460969;115;922679;-81
2022/08/01 00:03:16;;;;;;;2.84;1.64;;;;;;;23.39;40.21;100431.97;459805;114;922596;-80
2022/08/01 00:04:19;;;;;;;5.30;1.78;;;;;;;23.39;40.23;100434.75;456455;114;922655;-81
2022/08/01 00:05:22;;;;;;;3.16;1.35;;;;;;;23.38;40.26;100445.05;456550;114;923489;-80
2022/08/01 00:06:27;;;;;;;3.32;1.62;;;;;;;23.37;40.31;100442.59;456162;114;922583;-80
2022/08/01 00:07:31;;;;;;;2.29;1.38;;;;;;;23.37;40.25;100439.81;457147;114;922821;-80
2022/08/01 00:08:33;;;;;;;3.61;1.44;;;;;;;23.35;40.23;100437.33;461522;115;922638;-80
2022/08/01 00:09:37;;;;;;;3.53;1.61;;;;;;;23.34;40.32;100443.19;461301;114;922630;-81
2022/08/01 00:10:40;;;;;;;1.80;1.48;;;;;;;23.34;40.30;100434.84;456949;114;922617;-81
2022/08/01 00:11:43;;;;;;;3.24;1.62;;;;;;;23.32;40.32;100435.16;456493;114;922921;-80
2022/08/01 00:12:46;;;;;;;3.71;1.43;;;;;;;23.32;40.36;100437.12;457191;114;922531;-79
2022/08/01 00:13:50;;;;;;;2.19;1.51;;;;;;;23.30;40.42;100434.63;461216;114;922758;-81
2022/08/01 00:14:53;;;;;;;4.90;1.61;;;;;;;23.29;40.42;100438.53;455111;115;923114;-80
2022/08/01 00:15:56;;;;;;;6.20;1.60;;;;;;;23.29;40.38;100432.97;449458;116;922979;-81
2022/08/01 00:16:59;;;;;;;4.54;1.45;;;;;;;23.28;40.45;100439.66;449350;116;922952;-80
2022/08/01 00:18:04;;;;;;;1.72;1.44;;;;;;;23.26;40.48;100436.38;448456;116;922910;-80
2022/08/01 00:19:07;;;;;;;3.37;1.36;;;;;;;23.26;40.56;100437.20;449386;116;922618;-80
2022/08/01 00:20:13;;;;;;;2.22;1.48;;;;;;;23.24;40.58;100438.62;449208;116;922541;-80
2022/08/01 00:21:18;;;;;;;3.64;1.59;;;;;;;23.24;40.62;100433.05;450634;116;922718;-80
2022/08/01 00:22:21;;;;;;;2.95;1.73;;;;;;;23.23;40.58;100432.23;453217;116;923417;-79
2022/08/01 00:23:24;;;;;;;3.61;1.82;;;;;;;23.23;40.62;100436.95;452348;116;922567;-80
2022/08/01 00:24:28;;;;;;;1.73;1.32;;;;;;;23.22;40.62;100441.69;453207;116;922909;-80
2022/08/01 00:25:31;;;;;;;2.05;1.45;;;;;;;23.21;40.63;100442.02;451814;116;922823;-81
2022/08/01 00:26:36;;;;;;;3.72;1.57;;;;;;;23.20;40.75;100443.14;451827;116;922684;-80
2022/08/01 00:27:39;;;;;;;1.91;1.45;;;;;;;23.17;40.71;100441.77;451617;116;922701;-80
2022/08/01 00:28:42;;;;;;;3.68;1.45;;;;;;;23.17;40.73;100441.77;452643;116;923066;-80
2022/08/01 00:29:45;;;;;;;2.09;1.34;;;;;;;23.17;40.76;100438.16;457566;115;930437;-79
2022/08/01 00:30:50;;;;;;;2.83;1.62;;;;;;;23.17;40.81;100440.95;456067;113;922651;-79
2022/08/01 00:31:53;;;;;;;3.92;1.34;;;;;;;23.15;40.89;100441.27;462000;114;922660;-80
2022/08/01 00:32:56;;;;;;;2.67;1.44;;;;;;;23.15;40.92;100440.44;462387;114;922598;-81
2022/08/01 00:33:59;;;;;;;3.99;1.83;;;;;;;23.15;40.96;100437.66;458358;113;922535;-80
2022/08/01 00:35:02;;;;;;;2.43;1.31;;;;;;;23.15;40.98;100440.44;461143;113;922532;-80
2022/08/01 00:36:06;;;;;;;3.43;1.52;;;;;;;23.14;41.03;100444.34;458331;113;923093;-80
2022/08/01 00:37:09;;;;;;;22.99;1.82;;;;;;;23.14;41.07;100436.00;458409;115;922535;-80
2022/08/01 00:38:14;;;;;;;3.66;1.77;;;;;;;23.14;41.11;100449.91;457917;113;922551;-80
2022/08/01 00:39:17;;;;;;;2.33;1.46;;;;;;;23.14;41.15;100436.00;456930;115;922986;-80
2022/08/01 00:40:20;;;;;;;2.31;1.26;;;;;;;23.13;41.16;100435.17;456479;115;922614;-81
2022/08/01 00:41:24;;;;;;;2.72;1.71;;;;;;;23.12;41.15;100439.08;459582;113;923006;-80
2022/08/01 00:42:27;;;;;;;3.87;1.44;;;;;;;23.13;41.17;100439.91;465341;113;923892;-80
2022/08/01 00:43:30;;;;;;;2.61;1.27;;;;;;;23.12;41.17;100444.63;458436;113;922567;-80
2022/08/01 00:44:34;;;;;;;4.13;1.73;;;;;;;23.11;41.21;100442.15;458318;113;922586;-80
2022/08/01 00:45:37;;;;;;;2.98;1.89;;;;;;;23.10;41.23;100437.73;449397;117;922699;-80
2022/08/01 00:46:41;;;;;;;1.69;1.48;;;;;;;23.09;41.26;100439.69;451040;114;930380;-79
2022/08/01 00:47:44;;;;;;;3.44;1.46;;;;;;;23.08;41.27;100435.25;460330;113;922539;-80
2022/08/01 00:48:47;;;;;;;3.76;1.98;;;;;;;23.08;41.37;100445.55;456952;113;922533;-80
2022/08/01 00:49:51;;;;;;;3.69;1.44;;;;;;;23.07;41.38;100446.67;450467;115;922623;-81
2022/08/01 00:50:54;;;;;;;2.47;1.26;;;;;;;23.05;41.45;100444.18;455963;116;923138;-80
2022/08/01 00:51:58;;;;;;;5.14;1.46;;;;;;;23.06;41.47;100442.23;457421;115;922555;-82
2022/08/01 00:53:02;;;;;;;2.59;1.58;;;;;;;23.04;41.49;100444.50;454726;115;922669;-81
2022/08/01 00:54:05;;;;;;;3.98;1.30;;;;;;;23.04;41.48;100444.50;454936;115;923049;-80
2022/08/01 00:55:11;;;;;;;2.81;1.43;;;;;;;23.03;41.47;100438.11;451248;116;922677;-81
2022/08/01 00:56:20;;;;;;;4.41;1.33;;;;;;;23.03;41.50;100440.06;450905;115;930385;-81
2022/08/01 00:57:23;;;;;;;2.18;1.67;;;;;;;23.02;41.52;100444.80;451297;115;922593;-80
2022/08/01 00:58:30;;;;;;;3.79;1.69;;;;;;;23.01;41.55;100436.74;454011;116;922577;-81
2022/08/01 00:59:36;;;;;;;2.90;1.89;;;;;;;23.01;41.54;100436.74;457393;115;923039;-81
2022/08/01 01:00:39;;;;;;;1.98;1.36;;;;;;;23.00;41.62;100438.69;457377;115;923564;-81
2022/08/01 01:01:44;;;;;;;3.44;1.51;;;;;;;23.00;41.63;100435.91;454528;115;923324;-80
2022/08/01 01:02:49;;;;;;;2.64;1.51;;;;;;;23.00;41.66;100437.87;457778;115;923008;-80
2022/08/01 01:03:52;;;;;;;2.26;1.11;;;;;;;23.00;41.73;100440.64;457571;115;922918;-80
2022/08/01 01:04:57;;;;;;;4.02;1.48;;;;;;;22.99;41.83;100439.02;457149;115;923308;-80
2022/08/01 01:06:07;;;;;;;5.94;2.04;;;;;;;22.99;41.86;100436.23;457356;115;922657;-80
2022/08/01 01:07:29;;;;;;;1.92;1.31;;;;;;;22.98;41.91;100437.36;455509;115;922597;-81
2022/08/01 01:08:41;;;;;;;2.48;1.60;;;;;;;22.96;42.00;100432.09;456432;115;922593;-81
2022/08/01 01:09:55;;;;;;;3.97;1.83;;;;;;;22.96;42.04;100428.48;456886;115;922525;-81
2022/08/01 01:11:04;;;;;;;5.17;1.77;;;;;;;22.95;42.13;100426.82;454999;115;922599;-80
2022/08/01 01:12:11;;;;;;;2.81;1.57;;;;;;;22.94;42.07;100427.94;456968;115;922587;-80
2022/08/01 01:13:24;;;;;;;2.98;1.75;;;;;;;22.92;42.12;100428.27;457111;115;922677;-80
2022/08/01 01:14:47;;;;;;;1.39;1.22;;;;;;;22.90;42.14;100424.11;456215;115;922504;-81
2022/08/01 01:16:06;;;;;;;4.73;1.61;;;;;;;22.89;42.17;100423.28;450334;115;923270;-81
2022/08/01 01:17:13;;;;;;;3.92;1.65;;;;;;;22.88;42.22;100422.45;454108;115;923113;-80
2022/08/01 01:18:22;;;;;;;4.61;1.71;;;;;;;22.86;42.25;100421.95;450377;117;922578;-81
2022/08/01 01:19:29;;;;;;;6.17;1.88;;;;;;;22.85;42.27;100417.52;452977;115;922621;-81
2022/08/01 01:20:43;;;;;;;7.34;2.12;;;;;;;22.85;42.30;100416.68;450281;117;922663;-82
2022/08/01 01:22:06;;;;;;;3.38;1.73;;;;;;;22.85;42.30;100417.52;451697;115;922809;-81
2022/08/01 01:23:47;;;;;;;4.28;1.69;;;;;;;22.84;42.31;100417.80;456185;115;922765;-81
2022/08/01 01:25:17;;;;;;;4.95;2.06;;;;;;;22.83;42.35;100424.48;456808;115;922850;-80
2022/08/01 01:26:47;;;;;;;3.43;1.98;;;;;;;22.81;42.40;100419.24;450376;115;922979;-82
2022/08/01 01:28:09;;;;;;;4.15;1.80;;;;;;;22.79;42.46;100415.92;454460;116;923315;-81
2022/08/01 01:29:35;;;;;;;3.63;1.86;;;;;;;22.77;42.53;100423.73;451826;115;922552;-81
2022/08/01 01:30:43;;;;;;;3.93;1.93;;;;;;;22.76;42.58;100421.27;455052;114;923157;-81
2022/08/01 01:32:06;;;;;;;2.13;1.64;;;;;;;22.75;42.61;100420.44;462670;114;923190;-80
2022/08/01 01:33:12;;;;;;;4.27;1.90;;;;;;;22.74;42.64;100417.95;460363;114;922772;-81
2022/08/01 01:34:19;;;;;;;9.95;2.02;;;;;;;22.73;42.72;100417.13;458009;114;922564;-81
2022/08/01 01:35:24;;;;;;;4.42;2.08;;;;;;;22.73;42.76;100408.78;452573;115;923397;-81
2022/08/01 01:36:31;;;;;;;2.47;1.92;;;;;;;22.74;42.80;100417.95;444579;118;923036;-80
2022/08/01 01:37:38;;;;;;;3.64;2.01;;;;;;;22.75;42.81;100416.83;447088;117;922596;-80
2022/08/01 01:38:45;;;;;;;3.54;2.06;;;;;;;22.74;42.87;100415.17;452525;114;923155;-80
2022/08/01 01:39:50;;;;;;;2.12;1.91;;;;;;;22.75;42.92;100412.10;451965;116;923369;-81
2022/08/01 01:40:57;;;;;;;6.69;2.16;;;;;;;22.76;42.94;100410.98;449958;115;922625;-80
2022/08/01 01:42:02;;;;;;;5.09;1.98;;;;;;;22.76;42.92;100412.93;453984;116;922578;-81
2022/08/01 01:43:09;;;;;;;6.50;2.08;;;;;;;22.75;42.93;100406.54;449557;115;923130;-82
2022/08/01 01:44:15;;;;;;;4.36;2.26;;;;;;;22.76;42.99;100404.59;456332;116;923316;-80
2022/08/01 01:45:18;;;;;;;4.61;2.35;;;;;;;22.75;43.00;100406.54;451605;116;922777;-81
2022/08/01 01:46:26;;;;;;;4.06;2.36;;;;;;;22.76;43.02;100399.86;451513;116;930485;-81
2022/08/01 01:47:31;;;;;;;4.59;1.90;;;;;;;22.75;43.02;100398.20;454157;115;923142;-81
2022/08/01 01:48:35;;;;;;;4.39;2.05;;;;;;;22.76;42.99;100402.64;451457;116;922540;-80
2022/08/01 01:49:40;;;;;;;4.05;1.89;;;;;;;22.77;43.01;100407.05;457253;116;922808;-81
2022/08/01 01:50:45;;;;;;;4.40;2.00;;;;;;;22.77;42.95;100406.25;453317;116;923116;-82
2022/08/01 01:51:50;;;;;;;2.54;1.93;;;;;;;22.77;42.95;100406.25;449616;116;922518;-81
2022/08/01 01:52:56;;;;;;;4.21;1.88;;;;;;;22.78;43.11;100405.09;455984;115;922656;-80
2022/08/01 01:54:01;;;;;;;4.88;2.06;;;;;;;22.78;43.09;100402.32;452583;116;923171;-79
2022/08/01 01:55:07;;;;;;;3.23;1.97;;;;;;;22.79;43.14;100403.98;449832;114;922658;-80
2022/08/01 01:56:13;;;;;;;3.24;2.13;;;;;;;22.78;43.19;100397.59;451178;116;922858;-80
2022/08/01 01:57:18;;;;;;;3.14;2.14;;;;;;;22.77;43.19;100407.05;453784;115;922557;-81
2022/08/01 01:58:23;;;;;;;2.92;2.04;;;;;;;22.78;43.21;100402.32;453714;115;923143;-81
2022/08/01 01:59:29;;;;;;;5.01;2.02;;;;;;;22.76;43.23;100404.59;456043;114;922983;-80
2022/08/01 02:00:34;;;;;;;3.67;1.96;;;;;;;22.74;43.33;100404.88;460633;113;922534;-80
2022/08/01 02:01:38;;;;;;;3.16;1.83;;;;;;;22.73;43.31;100411.56;458181;115;922952;-80
2022/08/01 02:02:45;;;;;;;2.60;2.11;;;;;;;22.73;43.40;100407.95;458972;114;922770;-80
2022/08/01 02:03:51;;;;;;;3.52;2.12;;;;;;;22.73;43.43;100408.78;460916;113;922718;-79
2022/08/01 02:04:55;;;;;;;4.76;2.78;;;;;;;22.75;43.46;100408.49;461993;113;922770;-79
2022/08/01 02:06:00;;;;;;;4.56;2.46;;;;;;;22.76;43.48;100410.16;463604;114;923165;-80
2022/08/01 02:07:05;;;;;;;3.27;1.89;;;;;;;22.76;43.48;100405.42;463108;113;922992;-80
2022/08/01 02:08:11;;;;;;;6.01;2.29;;;;;;;22.76;43.55;100407.38;458142;113;922786;-81
2022/08/01 02:09:20;;;;;;;4.31;2.33;;;;;;;22.76;43.52;100410.98;462494;113;922796;-80
2022/08/01 02:10:25;;;;;;;4.88;2.17;;;;;;;22.77;43.54;100407.05;463286;113;923027;-80
2022/08/01 02:11:32;;;;;;;7.36;2.31;;;;;;;22.77;43.56;100412.61;463302;114;922496;-80
2022/08/01 02:12:37;;;;;;;3.12;2.36;;;;;;;22.77;43.62;100406.25;462365;114;922924;-81
2022/08/01 02:13:42;;;;;;;5.28;2.39;;;;;;;22.77;43.61;100414.59;462005;114;922555;-81
2022/08/01 02:14:47;;;;;;;4.21;2.34;;;;;;;22.77;43.63;100407.05;458122;113;922861;-81
2022/08/01 02:15:50;;;;;;;4.34;2.61;;;;;;;22.76;43.64;100405.42;457184;115;923090;-81
2022/08/01 02:16:57;;;;;;;4.08;2.36;;;;;;;22.77;43.64;100409.03;454554;115;922831;-80
2022/08/01 02:18:02;;;;;;;4.65;2.12;;;;;;;22.77;43.62;100409.03;457430;115;922531;-80
2022/08/01 02:19:05;;;;;;;5.45;2.29;;;;;;;22.75;43.63;100414.88;456489;115;922532;-81
2022/08/01 02:20:10;;;;;;;4.63;2.06;;;;;;;22.75;43.62;100403.77;457367;115;930547;-80
2022/08/01 02:21:17;;;;;;;3.96;2.34;;;;;;;22.75;43.63;100412.10;457866;115;930580;-81
2022/08/01 02:22:32;;;;;;;5.53;2.40;;;;;;;22.75;43.65;100400.98;456569;115;922651;-81
2022/08/01 02:23:38;;;;;;;8.22;2.57;;;;;;;22.75;43.68;100403.77;457462;115;922603;-80
2022/08/01 02:24:44;;;;;;;5.17;2.37;;;;;;;22.74;43.73;100401.27;456857;115;922522;-80
2022/08/01 02:25:53;;;;;;;6.68;2.28;;;;;;;22.74;43.72;100404.05;456692;115;923074;-80
2022/08/01 02:27:00;;;;;;;;;;;;;;;22.74;43.74;100398.49;458999;115;922539;-81
2022/08/01 02:28:15;;;;;;;3.04;2.15;;;;;;;22.73;43.81;100402.39;461143;113;922693;-80
2022/08/01 02:29:22;;;;;;;4.39;2.30;;;;;;;22.71;43.83;100402.72;460204;113;928882;-81
2022/08/01 02:30:30;;;;;;;4.31;3.08;;;;;;;22.70;43.86;100400.20;458176;113;923031;-81
2022/08/01 02:31:37;;;;;;;6.83;2.62;;;;;;;22.69;43.96;100396.59;464736;113;922629;-81
2022/08/01 02:32:55;;;;;;;5.55;2.52;;;;;;;22.69;43.94;100396.59;461723;113;922669;-81
2022/08/01 02:34:05;;;;;;;3.12;2.32;;;;;;;22.69;44.02;100393.81;463583;113;922499;-81
2022/08/01 02:35:12;;;;;;;4.44;2.59;;;;;;;22.70;43.94;100400.20;460612;114;922606;-81
2022/08/01 02:36:18;;;;;;;3.90;2.21;;;;;;;22.69;44.00;100399.36;460651;114;922671;-81
2022/08/01 02:37:25;;;;;;;7.62;2.97;;;;;;;22.71;43.99;100393.52;458340;114;922825;-82
2022/08/01 02:38:32;;;;;;;4.36;2.64;;;;;;;22.71;43.98;100396.30;462298;114;922463;-81
2022/08/01 02:39:37;;;;;;;3.47;2.31;;;;;;;22.71;44.08;100399.94;463618;113;922894;-81
2022/08/01 02:40:44;;;;;;;4.07;2.49;;;;;;;22.72;44.06;100397.95;462487;113;922688;-81
2022/08/01 02:41:49;;;;;;;3.03;2.27;;;;;;;22.72;44.12;100395.17;463337;114;922544;-80
2022/08/01 02:42:56;;;;;;;3.36;2.76;;;;;;;22.72;44.20;100398.78;463206;113;922622;-81
2022/08/01 02:44:03;;;;;;;4.03;2.63;;;;;;;22.72;44.20;100398.78;460894;114;922616;-81
2022/08/01 02:45:08;;;;;;;5.11;2.65;;;;;;;22.74;44.22;100396.55;461741;113;923354;-81
2022/08/01 02:46:15;;;;;;;3.54;2.48;;;;;;;22.76;44.31;100396.25;456010;116;923235;-81
2022/08/01 02:47:20;;;;;;;6.92;2.66;;;;;;;22.76;44.23;100399.03;453548;114;923188;-80
2022/08/01 02:48:25;;;;;;;5.38;2.77;;;;;;;22.75;44.28;100395.42;463456;113;922669;-80
2022/08/01 02:49:32;;;;;;;4.27;2.81;;;;;;;22.76;44.24;100397.08;463443;113;922623;-81
2022/08/01 02:50:38;;;;;;;3.23;2.72;;;;;;;22.77;44.25;100400.69;463146;113;923129;-80
2022/08/01 02:51:43;;;;;;;4.53;2.65;;;;;;;22.76;44.25;100394.30;463431;114;922926;-81
2022/08/01 02:52:49;;;;;;;3.24;2.45;;;;;;;22.77;44.25;100390.38;462760;114;923417;-82
2022/08/01 02:53:54;;;;;;;4.52;2.84;;;;;;;22.77;44.23;100395.13;462690;113;923143;-81
2022/08/01 02:55:00;;;;;;;7.16;2.74;;;;;;;22.77;44.25;100400.69;462794;113;922910;-81
2022/08/01 02:56:05;;;;;;;4.24;2.56;;;;;;;22.77;44.29;100393.15;463592;113;922589;-81
2022/08/01 02:57:10;;;;;;;4.79;2.68;;;;;;;22.77;44.32;100390.38;461562;114;922714;-80
2022/08/01 02:58:18;;;;;;;3.59;2.42;;;;;;;22.78;44.39;100393.98;462474;113;923353;-80
2022/08/01 02:59:25;;;;;;;5.80;2.89;;;;;;;22.78;44.36;100397.59;464028;113;922598;-80
2022/08/01 03:00:31;;;;;;;6.31;2.62;;;;;;;22.78;44.40;100394.81;461637;114;922639;-79
2022/08/01 03:01:35;;;;;;;4.61;2.57;;;;;;;22.79;44.45;100390.08;460812;113;922804;-82
2022/08/01 03:02:40;;;;;;;5.58;2.91;;;;;;;22.79;44.45;100390.08;458155;115;923093;-81
2022/08/01 03:03:43;;;;;;;5.61;2.86;;;;;;;22.78;44.45;100392.03;458087;115;922687;-79
2022/08/01 03:04:49;;;;;;;4.04;2.67;;;;;;;22.80;44.48;100392.56;461876;114;922613;-80
2022/08/01 03:05:54;;;;;;;8.24;2.82;;;;;;;22.79;44.51;100390.91;460929;113;922681;-82
2022/08/01 03:07:00;;;;;;;5.77;2.59;;;;;;;22.79;44.55;100392.86;462698;114;922918;-81
2022/08/01 03:08:05;;;;;;;6.05;3.32;;;;;;;22.80;44.61;100389.78;460794;114;922577;-81
2022/08/01 03:09:11;;;;;;;7.05;3.08;;;;;;;22.79;44.64;100388.12;461996;113;922558;-80
2022/08/01 03:10:16;;;;;;;4.13;2.86;;;;;;;22.80;44.61;100398.12;458056;113;922755;-81
2022/08/01 03:11:21;;;;;;;6.04;3.08;;;;;;;22.80;44.63;100388.95;461956;113;922455;-80
2022/08/01 03:12:27;;;;;;;4.69;2.75;;;;;;;22.81;45.03;100396.17;458253;115;923436;-80
2022/08/01 03:13:31;;;;;;;4.71;2.91;;;;;;;22.81;45.03;100396.17;461218;113;922627;-79
2022/08/01 03:14:38;;;;;;;6.80;3.62;;;;;;;22.81;44.71;100379.50;458519;113;922617;-81
2022/08/01 03:15:43;;;;;;;6.39;3.33;;;;;;;22.81;44.77;100379.50;457794;115;922939;-79
2022/08/01 03:16:47;;;;;;;7.11;2.96;;;;;;;22.80;44.81;100388.95;457530;115;922720;-80
2022/08/01 03:17:52;;;;;;;4.68;2.91;;;;;;;22.81;44.85;100385.05;457184;115;922635;-80
2022/08/01 03:18:57;;;;;;;6.83;3.06;;;;;;;22.82;44.88;100389.50;457247;115;922609;-80
2022/08/01 03:20:02;;;;;;;5.04;3.02;;;;;;;22.81;44.92;100388.66;457317;115;923112;-79
2022/08/01 03:21:06;;;;;;;7.80;3.09;;;;;;;22.81;44.98;100385.89;457551;115;922999;-80
2022/08/01 03:22:13;;;;;;;6.68;2.97;;;;;;;22.82;45.05;100379.17;457340;115;922516;-80
2022/08/01 03:23:18;;;;;;;9.14;3.62;;;;;;;22.84;45.09;100385.27;457201;115;922690;-80
2022/08/01 03:24:23;;;;;;;6.98;3.80;;;;;;;22.84;45.05;100388.05;458462;114;923106;-80
2022/08/01 03:25:28;;;;;;;3.80;2.63;;;;;;;22.85;45.06;100383.32;462116;113;922503;-80
2022/08/01 03:26:36;;;;;;;5.39;3.03;;;;;;;22.85;45.10;100383.32;457909;113;922570;-80
2022/08/01 03:27:41;;;;;;;6.13;3.31;;;;;;;22.85;45.12;100392.48;458145;113;923104;-81
2022/08/01 03:28:47;;;;;;;5.59;3.09;;;;;;;22.85;45.16;100381.37;458131;115;923109;-81
2022/08/01 03:29:51;;;;;;;6.33;3.42;;;;;;;22.86;45.16;100388.59;459026;113;922951;-79
2022/08/01 03:30:56;;;;;;;6.37;2.99;;;;;;;22.88;45.18;100384.69;459973;113;922660;-80
2022/08/01 03:32:00;;;;;;;3.66;3.01;;;;;;;22.88;45.18;100385.48;458215;113;930508;-79
2022/08/01 03:33:03;;;;;;;4.12;2.58;;;;;;;22.88;45.24;100382.70;458224;115;923195;-80
2022/08/01 03:34:07;;;;;;;4.57;2.52;;;;;;;22.88;45.29;100389.09;455603;113;922622;-82
2022/08/01 03:35:10;;;;;;;4.39;2.54;;;;;;;22.88;45.34;100389.09;452265;115;930678;-81
2022/08/01 03:36:15;;;;;;;4.68;2.74;;;;;;;22.91;45.43;100386.85;451944;115;922814;-80
2022/08/01 03:37:36;;;;;;;6.11;3.35;;;;;;;22.92;45.49;100388.51;450711;115;923114;-81
2022/08/01 03:38:40;;;;;;;5.57;3.04;;;;;;;22.92;45.51;100382.95;454137;115;930547;-81
2022/08/01 03:39:50;;;;;;;4.74;2.62;;;;;;;22.93;45.51;100387.39;452211;115;922685;-80
2022/08/01 03:40:57;;;;;;;5.17;2.99;;;;;;;22.93;45.58;100387.39;452025;116;922883;-81
2022/08/01 03:42:04;;;;;;;7.09;2.88;;;;;;;22.94;45.62;100383.45;449213;116;923328;-80
2022/08/01 03:43:11;;;;;;;7.03;3.12;;;;;;;22.94;45.64;100391.80;450972;116;922558;-81
2022/08/01 03:44:17;;;;;;;4.37;2.72;;;;;;;22.94;45.67;100389.84;449152;116;922568;-80
2022/08/01 03:45:30;;;;;;;5.72;2.86;;;;;;;22.95;45.74;100387.89;452537;115;922627;-81
2022/08/01 03:46:44;;;;;;;6.03;3.15;;;;;;;22.95;45.78;100391.50;453596;116;922691;-80
2022/08/01 03:47:50;;;;;;;5.12;2.92;;;;;;;22.96;45.80;100393.16;449794;115;922770;-80
2022/08/01 03:48:57;;;;;;;5.89;3.11;;;;;;;22.96;45.79;100392.33;452690;116;922968;-81
2022/08/01 03:50:06;;;;;;;8.03;3.21;;;;;;;22.97;45.79;100388.42;454143;116;922530;-81
2022/08/01 03:51:13;;;;;;;6.68;3.43;;;;;;;22.97;45.85;100388.42;452692;116;923058;-80
2022/08/01 03:52:16;;;;;;;6.04;2.86;;;;;;;22.97;45.90;100393.98;452513;116;922558;-81
2022/08/01 03:53:25;;;;;;;6.55;3.25;;;;;;;22.98;45.90;100392.87;450026;115;923155;-79
2022/08/01 03:54:33;;;;;;;7.57;3.79;;;;;;;22.99;45.93;100398.10;454181;116;922555;-80
2022/08/01 03:55:39;;;;;;;5.26;3.22;;;;;;;22.99;46.02;100395.32;454216;115;923089;-82
2022/08/01 03:56:43;;;;;;;6.53;3.81;;;;;;;23.01;46.05;100395.03;452976;115;923111;-81
2022/08/01 03:57:48;;;;;;;8.34;4.22;;;;;;;23.03;46.10;100392.78;456147;116;923280;-81
2022/08/01 03:58:51;;;;;;;6.61;3.40;;;;;;;23.04;46.10;100394.44;451711;116;922596;-81
2022/08/01 03:59:57;;;;;;;7.28;3.04;;;;;;;23.06;46.12;100393.00;457675;113;924169;-81
2022/08/01 04:01:01;;;;;;;8.09;3.23;;;;;;;23.07;46.16;100388.27;464182;113;922783;-81
2022/08/01 04:02:06;;;;;;;6.50;3.84;;;;;;;23.09;46.22;100386.02;453337;115;922984;-81
2022/08/01 04:03:12;;;;;;;6.10;4.51;;;;;;;23.11;46.20;100389.30;453967;114;930640;-81
2022/08/01 04:04:15;;;;;;;5.66;3.34;;;;;;;23.11;46.22;100381.78;462255;114;923428;-82
2022/08/01 04:05:18;;;;;;;8.86;3.52;;;;;;;23.13;46.21;100387.89;462599;113;922867;-80
2022/08/01 04:06:23;;;;;;;4.05;3.19;;;;;;;23.14;46.34;100389.55;463593;113;930783;-81
2022/08/01 04:07:32;;;;;;;11.96;3.09;;;;;;;23.16;46.30;100395.61;463808;113;922952;-80
2022/08/01 04:08:36;;;;;;;5.18;3.35;;;;;;;23.18;46.32;100390.58;462963;114;923202;-81
2022/08/01 04:09:39;;;;;;;6.40;3.22;;;;;;;23.20;46.32;100387.51;464319;113;922589;-81
2022/08/01 04:10:45;;;;;;;9.22;3.56;;;;;;;23.20;46.29;100382.77;463615;113;923372;-81
2022/08/01 04:11:49;;;;;;;5.69;3.24;;;;;;;23.21;46.26;100383.60;465437;114;922976;-81
2022/08/01 04:12:52;;;;;;;7.44;3.33;;;;;;;23.23;46.30;100382.15;465441;114;923622;-80
2022/08/01 04:13:55;;;;;;;9.74;2.71;;;;;;;23.25;46.07;100379.91;465503;114;922507;-79
2022/08/01 04:15:00;;;;;;;9.67;3.41;;;;;;;23.25;46.07;100379.91;460015;114;922834;-81
2022/08/01 04:16:04;;;;;;;4.03;2.99;;;;;;;23.25;46.41;100379.08;452070;116;930513;-79
2022/08/01 04:17:07;;;;;;;5.22;3.27;;;;;;;23.27;46.41;100376.80;449544;116;923583;-80
2022/08/01 04:18:10;;;;;;;5.66;3.32;;;;;;;23.28;46.42;100367.33;453026;116;930524;-81
2022/08/01 04:19:13;;;;;;;4.92;3.27;;;;;;;23.28;46.49;100375.67;452867;116;922722;-80
2022/08/01 04:20:17;;;;;;;9.08;3.74;;;;;;;23.29;46.49;100375.38;454346;115;922486;-82
2022/08/01 04:21:23;;;;;;;7.90;4.25;;;;;;;23.31;46.51;100377.03;461365;115;931147;-81
2022/08/01 04:22:26;;;;;;;13.16;6.26;;;;;;;23.30;46.53;100376.20;458328;115;922574;-80
2022/08/01 04:23:31;;;;;;;5.60;4.83;;;;;;;23.31;46.54;100377.86;461986;114;923130;-80
2022/08/01 04:24:36;;;;;;;8.35;4.75;;;;;;;23.33;46.61;100381.14;459049;113;930589;-81
2022/08/01 04:25:42;;;;;;;9.26;6.36;;;;;;;23.33;46.67;100375.58;461161;113;930630;-81
2022/08/01 04:26:47;;;;;;;12.96;7.38;;;;;;;23.34;46.73;100376.41;461906;113;930527;-81
2022/08/01 04:27:53;;;;;;;9.72;7.21;;;;;;;23.35;46.70;100378.89;458144;113;922715;-81
2022/08/01 04:28:56;;;;;;;6.89;6.08;;;;;;;23.37;46.73;100381.38;458135;115;923157;-83
2022/08/01 04:30:00;;;;;;;9.66;6.04;;;;;;;23.38;46.81;100375.48;459141;113;922549;-83
2022/08/01 04:31:09;;;;;;;7.34;6.56;;;;;;;23.39;46.80;100382.72;462675;113;922630;-83
2022/08/01 04:32:14;;;;;;;8.95;7.29;;;;;;;23.40;46.81;100384.38;461184;113;922489;-82
2022/08/01 04:33:19;;;;;;;7.10;6.22;;;;;;;23.41;46.85;100374.90;462498;114;922658;-79
2022/08/01 04:34:25;;;;;;;6.67;4.78;;;;;;;23.44;47.00;100379.01;455274;114;922508;-81
2022/08/01 04:35:29;;;;;;;6.98;4.64;;;;;;;23.44;46.90;100382.63;452423;115;922582;-80
2022/08/01 04:36:36;;;;;;;6.98;5.23;;;;;;;23.46;46.92;100385.97;451003;115;923162;-81
2022/08/01 04:37:41;;;;;;;7.77;4.53;;;;;;;23.48;46.92;100386.50;453734;115;922516;-81
2022/08/01 04:38:46;;;;;;;6.88;4.66;;;;;;;23.49;47.03;100385.34;452216;116;923137;-81
2022/08/01 04:39:52;;;;;;;7.44;4.58;;;;;;;23.50;47.00;100388.95;450771;115;922864;-81
2022/08/01 04:40:57;;;;;;;6.74;4.71;;;;;;;23.53;47.11;100388.36;450574;115;922521;-81
2022/08/01 04:42:03;;;;;;;8.84;4.90;;;;;;;23.54;47.11;100393.60;454702;116;922712;-82
2022/08/01 04:43:07;;;;;;;5.77;3.87;;;;;;;23.56;47.19;100388.56;455508;116;922629;-81
2022/08/01 04:44:10;;;;;;;7.69;5.15;;;;;;;23.57;47.29;100393.01;453180;115;922887;-81
2022/08/01 04:45:13;;;;;;;5.22;4.48;;;;;;;23.59;47.34;100385.19;450854;116;930576;-81
2022/08/01 04:46:18;;;;;;;6.37;4.98;;;;;;;23.61;47.31;100393.21;450747;115;922596;-82
2022/08/01 04:47:23;;;;;;;7.54;5.52;;;;;;;23.62;47.32;100386.52;453762;116;922579;-83
2022/08/01 04:48:26;;;;;;;7.74;5.56;;;;;;;23.65;47.38;100383.94;457289;115;923166;-81
2022/08/01 04:49:31;;;;;;;6.71;5.52;;;;;;;23.66;47.40;100384.77;451228;115;922631;-82
2022/08/01 04:50:37;;;;;;;7.63;5.61;;;;;;;23.68;47.44;100383.34;450856;115;930539;-80
2022/08/01 04:51:59;;;;;;;8.09;5.87;;;;;;;23.69;47.44;100378.60;452337;115;922643;-81
2022/08/01 04:53:02;;;;;;;8.01;4.04;;;;;;;23.71;47.41;100375.52;454118;115;922591;-81
2022/08/01 04:54:07;;;;;;;7.93;5.19;;;;;;;23.72;47.46;100374.36;452338;115;922854;-81
2022/08/01 04:55:10;;;;;;;6.87;4.04;;;;;;;23.73;47.54;100370.45;453216;116;923285;-79
2022/08/01 04:56:14;;;;;;;4.94;4.18;;;;;;;23.74;47.59;100372.94;453618;115;930608;-80
2022/08/01 04:57:17;;;;;;;6.53;3.72;;;;;;;23.77;47.57;100382.62;452848;114;923161;-82
2022/08/01 04:58:20;;;;;;;5.49;3.65;;;;;;;23.79;47.56;100374.80;451107;116;922673;-82
2022/08/01 04:59:42;;;;;;;5.69;3.87;;;;;;;23.79;47.57;100375.63;451576;115;923026;-83
2022/08/01 05:00:47;;;;;;;8.43;4.00;;;;;;;23.81;47.62;100378.11;463194;113;922890;-82
2022/08/01 05:01:50;;;;;;;5.24;3.89;;;;;;;23.84;47.67;100380.27;461378;114;922797;-83
2022/08/01 05:02:54;;;;;;;4.90;4.41;;;;;;;23.86;47.69;100372.44;462752;113;922647;-80
2022/08/01 05:03:57;;;;;;;6.45;4.35;;;;;;;23.88;47.80;100372.94;462004;113;922664;-80